sensor_id;sensor_type;location;lat;lon;timestamp;pressure;altitude;pressure_sealevel;temperature;humidity
10060;BME280;5069;49.306;8.636;2023-02-11T00:01:41;102672.28;;;1.11;90.01
10060;BME280;5069;49.306;8.636;2023-02-11T00:04:43;102667.19;;;1.14;90.07
10060;BME280;5069;49.306;8.636;2023-02-11T00:07:44;102669.75;;;1.13;89.35
10060;BME280;5069;49.306;8.636;2023-02-11T00:10:50;102661.00;;;1.11;90.05
10060;BME280;5069;49.306;8.636;2023-02-11T00:13:52;102661.91;;;1.11;89.66
10060;BME280;5069;49.306;8.636;2023-02-11T00:16:54;102661.16;;;1.14;90.62
10060;BME280;5069;49.306;8.636;2023-02-11T00:19:55;102665.56;;;1.16;89.56
10060;BME280;5069;49.306;8.636;2023-02-11T00:22:56;102658.59;;;1.15;90.13
10060;BME280;5069;49.306;8.636;2023-02-11T00:25:58;102662.16;;;1.17;89.86
10060;BME280;5069;49.306;8.636;2023-02-11T00:29:00;102658.91;;;1.23;89.46
10060;BME280;5069;49.306;8.636;2023-02-11T00:32:05;102658.84;;;1.21;89.67
10060;BME280;5069;49.306;8.636;2023-02-11T00:35:07;102657.06;;;1.20;90.52
10060;BME280;5069;49.306;8.636;2023-02-11T00:38:08;102647.53;;;1.19;91.24
10060;BME280;5069;49.306;8.636;2023-02-11T00:41:12;102637.69;;;1.12;92.49
10060;BME280;5069;49.306;8.636;2023-02-11T00:44:14;102640.97;;;1.08;93.10
10060;BME280;5069;49.306;8.636;2023-02-11T00:47:15;102643.97;;;1.17;92.18
10060;BME280;5069;49.306;8.636;2023-02-11T00:50:17;102641.13;;;1.11;93.15
10060;BME280;5069;49.306;8.636;2023-02-11T00:53:19;102628.38;;;1.17;92.55
10060;BME280;5069;49.306;8.636;2023-02-11T00:56:20;102631.22;;;1.23;91.98
10060;BME280;5069;49.306;8.636;2023-02-11T00:59:22;102632.84;;;1.21;93.39
10060;BME280;5069;49.306;8.636;2023-02-11T01:02:23;102630.84;;;1.14;93.68
10060;BME280;5069;49.306;8.636;2023-02-11T01:05:25;102629.19;;;1.16;94.01
10060;BME280;5069;49.306;8.636;2023-02-11T01:08:26;102623.19;;;1.17;94.30
10060;BME280;5069;49.306;8.636;2023-02-11T01:11:28;102624.25;;;1.22;94.21
10060;BME280;5069;49.306;8.636;2023-02-11T01:14:29;102612.78;;;1.17;94.62
10060;BME280;5069;49.306;8.636;2023-02-11T01:17:31;102623.88;;;1.13;95.50
10060;BME280;5069;49.306;8.636;2023-02-11T01:20:33;102618.69;;;1.13;96.57
10060;BME280;5069;49.306;8.636;2023-02-11T01:23:34;102621.41;;;1.16;96.71
10060;BME280;5069;49.306;8.636;2023-02-11T01:26:36;102628.56;;;1.22;97.03
10060;BME280;5069;49.306;8.636;2023-02-11T01:29:37;102627.66;;;1.21;96.98
10060;BME280;5069;49.306;8.636;2023-02-11T01:32:39;102632.22;;;1.27;97.15
10060;BME280;5069;49.306;8.636;2023-02-11T01:35:43;102633.34;;;1.34;96.70
10060;BME280;5069;49.306;8.636;2023-02-11T01:38:44;102631.75;;;1.37;96.00
10060;BME280;5069;49.306;8.636;2023-02-11T01:41:46;102626.56;;;1.37;96.90
10060;BME280;5069;49.306;8.636;2023-02-11T01:44:49;102625.72;;;1.38;96.86
10060;BME280;5069;49.306;8.636;2023-02-11T01:47:54;102622.44;;;1.42;97.14
10060;BME280;5069;49.306;8.636;2023-02-11T01:51:00;102617.59;;;1.51;97.02
10060;BME280;5069;49.306;8.636;2023-02-11T01:54:04;102616.94;;;1.57;96.40
10060;BME280;5069;49.306;8.636;2023-02-11T01:57:28;102612.50;;;1.54;96.28
10060;BME280;5069;49.306;8.636;2023-02-11T02:00:36;102607.72;;;1.65;95.25
10060;BME280;5069;49.306;8.636;2023-02-11T02:03:41;102607.50;;;1.59;95.34
10060;BME280;5069;49.306;8.636;2023-02-11T02:06:59;102601.44;;;1.60;95.53
10060;BME280;5069;49.306;8.636;2023-02-11T02:10:07;102601.56;;;1.63;95.26
10060;BME280;5069;49.306;8.636;2023-02-11T02:13:11;102599.88;;;1.63;96.57
10060;BME280;5069;49.306;8.636;2023-02-11T02:16:15;102587.75;;;1.64;95.45
10060;BME280;5069;49.306;8.636;2023-02-11T02:19:46;102576.16;;;1.56;96.43
10060;BME280;5069;49.306;8.636;2023-02-11T02:26:42;102555.59;;;1.62;95.75
10060;BME280;5069;49.306;8.636;2023-02-11T02:39:34;102553.91;;;1.62;95.13
10060;BME280;5069;49.306;8.636;2023-02-11T02:42:38;102551.34;;;1.64;95.13
10060;BME280;5069;49.306;8.636;2023-02-11T02:45:40;102547.72;;;1.59;95.10
10060;BME280;5069;49.306;8.636;2023-02-11T02:48:43;102543.25;;;1.56;95.73
10060;BME280;5069;49.306;8.636;2023-02-11T02:58:29;102525.41;;;1.42;96.59
10060;BME280;5069;49.306;8.636;2023-02-11T03:04:56;102520.22;;;1.43;97.22
10060;BME280;5069;49.306;8.636;2023-02-11T03:08:07;102529.06;;;1.47;97.25
10060;BME280;5069;49.306;8.636;2023-02-11T03:11:11;102532.78;;;1.53;97.29
10060;BME280;5069;49.306;8.636;2023-02-11T03:14:17;102544.25;;;1.60;97.13
10060;BME280;5069;49.306;8.636;2023-02-11T03:17:19;102540.06;;;1.63;96.66
10060;BME280;5069;49.306;8.636;2023-02-11T03:20:22;102535.75;;;1.64;96.71
10060;BME280;5069;49.306;8.636;2023-02-11T03:23:38;102539.28;;;1.66;96.74
10060;BME280;5069;49.306;8.636;2023-02-11T03:26:44;102541.94;;;1.67;96.76
10060;BME280;5069;49.306;8.636;2023-02-11T03:29:59;102548.03;;;1.68;96.24
10060;BME280;5069;49.306;8.636;2023-02-11T03:33:19;102547.03;;;1.64;96.05
10060;BME280;5069;49.306;8.636;2023-02-11T03:36:50;102551.34;;;1.64;96.77
10060;BME280;5069;49.306;8.636;2023-02-11T03:39:59;102553.13;;;1.65;97.13
10060;BME280;5069;49.306;8.636;2023-02-11T03:43:07;102556.78;;;1.70;96.81
10060;BME280;5069;49.306;8.636;2023-02-11T03:46:13;102561.19;;;1.73;96.33
10060;BME280;5069;49.306;8.636;2023-02-11T03:49:19;102558.88;;;1.80;96.02
10060;BME280;5069;49.306;8.636;2023-02-11T03:52:23;102552.56;;;1.74;95.72
10060;BME280;5069;49.306;8.636;2023-02-11T03:55:27;102537.84;;;1.74;95.74
10060;BME280;5069;49.306;8.636;2023-02-11T03:58:30;102534.22;;;1.69;95.96
10060;BME280;5069;49.306;8.636;2023-02-11T04:01:31;102524.53;;;1.65;95.93
10060;BME280;5069;49.306;8.636;2023-02-11T04:04:33;102531.47;;;1.66;96.27
10060;BME280;5069;49.306;8.636;2023-02-11T04:07:34;102530.56;;;1.64;96.41
10060;BME280;5069;49.306;8.636;2023-02-11T04:10:35;102534.06;;;1.66;97.63
10060;BME280;5069;49.306;8.636;2023-02-11T04:13:37;102537.53;;;1.65;96.85
10060;BME280;5069;49.306;8.636;2023-02-11T04:16:38;102528.13;;;1.69;96.55
10060;BME280;5069;49.306;8.636;2023-02-11T04:19:40;102527.13;;;1.65;96.64
10060;BME280;5069;49.306;8.636;2023-02-11T04:22:41;102524.47;;;1.63;96.74
10060;BME280;5069;49.306;8.636;2023-02-11T04:25:43;102516.50;;;1.59;97.11
10060;BME280;5069;49.306;8.636;2023-02-11T04:28:44;102513.94;;;1.60;97.70
10060;BME280;5069;49.306;8.636;2023-02-11T04:31:46;102501.13;;;1.65;97.84
10060;BME280;5069;49.306;8.636;2023-02-11T04:34:47;102508.09;;;1.66;97.59
10060;BME280;5069;49.306;8.636;2023-02-11T04:37:49;102515.06;;;1.67;97.56
10060;BME280;5069;49.306;8.636;2023-02-11T04:40:50;102503.00;;;1.69;97.18
10060;BME280;5069;49.306;8.636;2023-02-11T04:43:51;102496.25;;;1.74;97.31
10060;BME280;5069;49.306;8.636;2023-02-11T04:46:53;102486.69;;;1.73;96.67
10060;BME280;5069;49.306;8.636;2023-02-11T04:49:54;102483.41;;;1.79;96.76
10060;BME280;5069;49.306;8.636;2023-02-11T04:52:56;102477.47;;;1.83;96.47
10060;BME280;5069;49.306;8.636;2023-02-11T04:55:57;102474.03;;;1.82;97.08
10060;BME280;5069;49.306;8.636;2023-02-11T04:58:59;102458.19;;;1.76;97.25
10060;BME280;5069;49.306;8.636;2023-02-11T05:02:00;102456.53;;;1.78;97.22
10060;BME280;5069;49.306;8.636;2023-02-11T05:05:02;102466.47;;;1.90;95.44
10060;BME280;5069;49.306;8.636;2023-02-11T05:08:03;102461.56;;;1.74;97.09
10060;BME280;5069;49.306;8.636;2023-02-11T05:11:05;102470.31;;;1.76;96.77
10060;BME280;5069;49.306;8.636;2023-02-11T05:14:07;102493.88;;;1.80;96.75
10060;BME280;5069;49.306;8.636;2023-02-11T05:17:09;102487.94;;;1.84;97.33
10060;BME280;5069;49.306;8.636;2023-02-11T05:20:10;102492.16;;;1.81;96.23
10060;BME280;5069;49.306;8.636;2023-02-11T05:23:12;102510.38;;;1.81;97.08
10060;BME280;5069;49.306;8.636;2023-02-11T05:26:13;102514.69;;;1.80;97.75
10060;BME280;5069;49.306;8.636;2023-02-11T05:29:15;102513.06;;;1.84;97.23
10060;BME280;5069;49.306;8.636;2023-02-11T05:32:16;102523.44;;;1.82;97.26
10060;BME280;5069;49.306;8.636;2023-02-11T05:35:18;102523.31;;;1.79;97.25
10060;BME280;5069;49.306;8.636;2023-02-11T05:38:19;102517.28;;;1.80;97.26
10060;BME280;5069;49.306;8.636;2023-02-11T05:41:21;102528.44;;;1.78;97.08
10060;BME280;5069;49.306;8.636;2023-02-11T05:44:22;102519.75;;;1.77;97.54
10060;BME280;5069;49.306;8.636;2023-02-11T05:47:24;102516.16;;;1.74;97.70
10060;BME280;5069;49.306;8.636;2023-02-11T05:50:25;102505.88;;;1.77;97.73
10060;BME280;5069;49.306;8.636;2023-02-11T05:53:27;102493.34;;;1.65;97.16
10060;BME280;5069;49.306;8.636;2023-02-11T05:56:28;102474.69;;;1.53;98.60
10060;BME280;5069;49.306;8.636;2023-02-11T05:59:29;102493.81;;;1.55;98.11
10060;BME280;5069;49.306;8.636;2023-02-11T06:02:31;102507.47;;;1.49;98.95
10060;BME280;5069;49.306;8.636;2023-02-11T06:05:32;102521.25;;;1.47;99.40
10060;BME280;5069;49.306;8.636;2023-02-11T06:08:34;102513.44;;;1.47;99.24
10060;BME280;5069;49.306;8.636;2023-02-11T06:11:39;102510.06;;;1.49;100.00
10060;BME280;5069;49.306;8.636;2023-02-11T06:14:40;102504.19;;;1.53;100.00
10060;BME280;5069;49.306;8.636;2023-02-11T06:17:42;102509.69;;;1.62;99.50
10060;BME280;5069;49.306;8.636;2023-02-11T06:20:43;102497.44;;;1.58;98.63
10060;BME280;5069;49.306;8.636;2023-02-11T06:23:45;102498.31;;;1.59;98.08
10060;BME280;5069;49.306;8.636;2023-02-11T06:26:46;102491.94;;;1.51;98.72
10060;BME280;5069;49.306;8.636;2023-02-11T06:29:47;102490.38;;;1.56;98.58
10060;BME280;5069;49.306;8.636;2023-02-11T06:32:49;102487.84;;;1.57;98.93
10060;BME280;5069;49.306;8.636;2023-02-11T06:35:51;102485.31;;;1.59;98.98
10060;BME280;5069;49.306;8.636;2023-02-11T06:38:54;102479.25;;;1.60;99.26
10060;BME280;5069;49.306;8.636;2023-02-11T06:41:55;102482.88;;;1.63;99.25
10060;BME280;5069;49.306;8.636;2023-02-11T06:44:57;102487.28;;;1.66;98.87
10060;BME280;5069;49.306;8.636;2023-02-11T06:47:58;102489.19;;;1.70;97.77
10060;BME280;5069;49.306;8.636;2023-02-11T06:51:07;102501.31;;;1.71;97.90
10060;BME280;5069;49.306;8.636;2023-02-11T06:54:10;102507.47;;;1.73;98.31
10060;BME280;5069;49.306;8.636;2023-02-11T06:57:12;102508.44;;;1.75;97.82
10060;BME280;5069;49.306;8.636;2023-02-11T07:00:13;102514.63;;;1.79;97.35
10060;BME280;5069;49.306;8.636;2023-02-11T07:03:15;102532.75;;;1.77;97.64
10060;BME280;5069;49.306;8.636;2023-02-11T07:06:22;102533.66;;;1.78;97.55
10060;BME280;5069;49.306;8.636;2023-02-11T07:09:25;102534.53;;;1.78;97.11
10060;BME280;5069;49.306;8.636;2023-02-11T07:12:27;102524.13;;;1.78;96.62
10060;BME280;5069;49.306;8.636;2023-02-11T07:15:28;102518.94;;;1.78;96.88
10060;BME280;5069;49.306;8.636;2023-02-11T07:18:30;102526.78;;;1.80;96.65
10060;BME280;5069;49.306;8.636;2023-02-11T07:21:31;102523.25;;;1.78;97.15
10060;BME280;5069;49.306;8.636;2023-02-11T07:24:32;102520.47;;;1.73;97.31
10060;BME280;5069;49.306;8.636;2023-02-11T07:27:34;102515.19;;;1.70;96.95
10060;BME280;5069;49.306;8.636;2023-02-11T07:30:35;102517.13;;;1.76;97.20
10060;BME280;5069;49.306;8.636;2023-02-11T07:33:37;102519.06;;;1.81;96.63
10060;BME280;5069;49.306;8.636;2023-02-11T07:36:38;102516.63;;;1.86;96.30
10060;BME280;5069;49.306;8.636;2023-02-11T07:39:40;102529.78;;;1.90;96.74
10060;BME280;5069;49.306;8.636;2023-02-11T07:42:41;102528.06;;;1.91;96.48
10060;BME280;5069;49.306;8.636;2023-02-11T07:45:43;102524.47;;;1.87;96.36
10060;BME280;5069;49.306;8.636;2023-02-11T07:48:44;102518.25;;;2.07;95.09
10060;BME280;5069;49.306;8.636;2023-02-11T07:51:46;102520.69;;;2.03;94.88
10060;BME280;5069;49.306;8.636;2023-02-11T07:54:49;102525.91;;;2.03;95.20
10060;BME280;5069;49.306;8.636;2023-02-11T07:57:50;102523.34;;;2.04;95.78
10060;BME280;5069;49.306;8.636;2023-02-11T08:00:51;102516.25;;;2.00;95.92
10060;BME280;5069;49.306;8.636;2023-02-11T08:03:54;102509.41;;;2.02;96.96
10060;BME280;5069;49.306;8.636;2023-02-11T08:06:56;102510.44;;;2.07;97.01
10060;BME280;5069;49.306;8.636;2023-02-11T08:09:59;102504.69;;;2.16;95.83
10060;BME280;5069;49.306;8.636;2023-02-11T08:13:01;102505.53;;;2.17;96.20
10060;BME280;5069;49.306;8.636;2023-02-11T08:16:03;102509.91;;;2.18;96.41
10060;BME280;5069;49.306;8.636;2023-02-11T08:19:09;102511.06;;;2.26;96.87
10060;BME280;5069;49.306;8.636;2023-02-11T08:22:11;102511.34;;;2.33;96.92
10060;BME280;5069;49.306;8.636;2023-02-11T08:25:13;102506.50;;;2.44;95.69
10060;BME280;5069;49.306;8.636;2023-02-11T08:28:14;102503.44;;;2.57;95.32
10060;BME280;5069;49.306;8.636;2023-02-11T08:31:21;102519.78;;;2.78;92.28
10060;BME280;5069;49.306;8.636;2023-02-11T08:34:23;102519.22;;;2.88;92.19
10060;BME280;5069;49.306;8.636;2023-02-11T08:37:25;102519.00;;;3.09;91.55
10060;BME280;5069;49.306;8.636;2023-02-11T08:40:26;102513.38;;;3.24;89.97
10060;BME280;5069;49.306;8.636;2023-02-11T08:43:28;102505.81;;;3.33;88.86
10060;BME280;5069;49.306;8.636;2023-02-11T08:46:29;102508.25;;;3.27;89.40
10060;BME280;5069;49.306;8.636;2023-02-11T08:49:31;102511.34;;;3.44;88.87
10060;BME280;5069;49.306;8.636;2023-02-11T08:52:35;102518.75;;;3.58;87.53
10060;BME280;5069;49.306;8.636;2023-02-11T08:55:36;102527.75;;;3.69;87.24
10060;BME280;5069;49.306;8.636;2023-02-11T08:58:38;102525.16;;;3.69;85.24
10060;BME280;5069;49.306;8.636;2023-02-11T09:01:40;102515.13;;;3.85;85.26
10060;BME280;5069;49.306;8.636;2023-02-11T09:04:41;102509.25;;;3.92;84.59
10060;BME280;5069;49.306;8.636;2023-02-11T09:07:43;102503.25;;;3.96;84.75
10060;BME280;5069;49.306;8.636;2023-02-11T09:10:44;102509.03;;;4.17;83.04
10060;BME280;5069;49.306;8.636;2023-02-11T09:13:46;102509.16;;;4.22;82.84
10060;BME280;5069;49.306;8.636;2023-02-11T09:16:48;102515.66;;;4.03;83.65
10060;BME280;5069;49.306;8.636;2023-02-11T09:19:50;102513.47;;;4.20;82.97
10060;BME280;5069;49.306;8.636;2023-02-11T09:22:53;102516.25;;;4.27;82.38
10060;BME280;5069;49.306;8.636;2023-02-11T09:25:54;102513.06;;;4.37;81.74
10060;BME280;5069;49.306;8.636;2023-02-11T09:28:56;102513.22;;;4.43;81.78
10060;BME280;5069;49.306;8.636;2023-02-11T09:31:58;102518.94;;;4.63;80.39
10060;BME280;5069;49.306;8.636;2023-02-11T09:34:59;102532.34;;;4.77;80.49
10060;BME280;5069;49.306;8.636;2023-02-11T09:38:01;102531.84;;;4.93;80.56
10060;BME280;5069;49.306;8.636;2023-02-11T09:41:02;102541.16;;;5.19;77.82
10060;BME280;5069;49.306;8.636;2023-02-11T09:44:16;102535.31;;;5.31;76.48
10060;BME280;5069;49.306;8.636;2023-02-11T09:47:24;102539.28;;;5.53;75.31
10060;BME280;5069;49.306;8.636;2023-02-11T09:50:52;102538.50;;;5.57;74.74
10060;BME280;5069;49.306;8.636;2023-02-11T09:53:57;102524.75;;;5.67;74.12
10060;BME280;5069;49.306;8.636;2023-02-11T09:57:04;102516.88;;;5.64;74.28
10060;BME280;5069;49.306;8.636;2023-02-11T10:00:18;102509.31;;;5.79;73.92
10060;BME280;5069;49.306;8.636;2023-02-11T10:03:41;102517.56;;;5.97;73.10
10060;BME280;5069;49.306;8.636;2023-02-11T10:06:52;102507.28;;;6.08;71.98
10060;BME280;5069;49.306;8.636;2023-02-11T10:13:34;102517.91;;;6.65;70.12
10060;BME280;5069;49.306;8.636;2023-02-11T10:20:20;102514.06;;;6.99;67.80
10060;BME280;5069;49.306;8.636;2023-02-11T10:23:28;102504.66;;;7.15;67.91
10060;BME280;5069;49.306;8.636;2023-02-11T10:26:32;102502.31;;;7.36;66.79
10060;BME280;5069;49.306;8.636;2023-02-11T10:29:39;102499.91;;;7.51;66.43
10060;BME280;5069;49.306;8.636;2023-02-11T10:32:48;102501.63;;;7.49;65.75
10060;BME280;5069;49.306;8.636;2023-02-11T10:35:52;102492.81;;;7.44;66.86
10060;BME280;5069;49.306;8.636;2023-02-11T10:38:54;102496.69;;;7.73;65.49
10060;BME280;5069;49.306;8.636;2023-02-11T10:42:01;102488.78;;;7.75;65.21
10060;BME280;5069;49.306;8.636;2023-02-11T10:45:06;102479.44;;;8.00;64.49
10060;BME280;5069;49.306;8.636;2023-02-11T10:48:37;102488.34;;;8.14;63.68
10060;BME280;5069;49.306;8.636;2023-02-11T10:51:41;102468.91;;;7.98;64.21
10060;BME280;5069;49.306;8.636;2023-02-11T10:55:03;102476.88;;;8.06;64.63
10060;BME280;5069;49.306;8.636;2023-02-11T10:58:05;102471.69;;;8.12;64.15
10060;BME280;5069;49.306;8.636;2023-02-11T11:01:07;102474.44;;;8.24;63.62
10060;BME280;5069;49.306;8.636;2023-02-11T11:07:34;102479.06;;;8.48;63.65
10060;BME280;5069;49.306;8.636;2023-02-11T11:10:40;102483.44;;;8.50;63.49
10060;BME280;5069;49.306;8.636;2023-02-11T11:16:52;102482.59;;;8.53;63.77
10060;BME280;5069;49.306;8.636;2023-02-11T11:20:28;102478.38;;;8.78;62.31
10060;BME280;5069;49.306;8.636;2023-02-11T11:23:34;102487.16;;;8.77;63.75
10060;BME280;5069;49.306;8.636;2023-02-11T11:26:43;102475.78;;;8.81;63.02
10060;BME280;5069;49.306;8.636;2023-02-11T11:29:48;102477.63;;;8.95;63.33
10060;BME280;5069;49.306;8.636;2023-02-11T11:32:50;102487.16;;;8.77;63.73
10060;BME280;5069;49.306;8.636;2023-02-11T11:39:02;102479.34;;;8.87;63.70
10060;BME280;5069;49.306;8.636;2023-02-11T11:42:32;102483.94;;;9.23;61.01
10060;BME280;5069;49.306;8.636;2023-02-11T11:45:33;102477.81;;;9.26;61.46
10060;BME280;5069;49.306;8.636;2023-02-11T11:48:41;102483.06;;;9.24;61.83
10060;BME280;5069;49.306;8.636;2023-02-11T11:51:53;102484.75;;;9.11;62.58
10060;BME280;5069;49.306;8.636;2023-02-11T11:55:08;102481.31;;;9.22;61.75
10060;BME280;5069;49.306;8.636;2023-02-11T11:58:16;102481.19;;;9.02;62.94
10060;BME280;5069;49.306;8.636;2023-02-11T12:01:54;102483.66;;;8.78;64.98
10060;BME280;5069;49.306;8.636;2023-02-11T12:05:06;102476.72;;;8.90;64.16
10060;BME280;5069;49.306;8.636;2023-02-11T12:15:10;102467.13;;;8.98;65.20
10060;BME280;5069;49.306;8.636;2023-02-11T12:18:35;102469.97;;;9.36;63.53
10060;BME280;5069;49.306;8.636;2023-02-11T12:25:07;102457.81;;;9.72;61.58
10060;BME280;5069;49.306;8.636;2023-02-11T12:28:24;102453.47;;;10.06;60.66
10060;BME280;5069;49.306;8.636;2023-02-11T12:35:17;102447.94;;;9.15;62.52
10060;BME280;5069;49.306;8.636;2023-02-11T12:41:58;102433.03;;;9.18;63.76
10060;BME280;5069;49.306;8.636;2023-02-11T12:52:20;102454.22;;;9.48;63.02
10060;BME280;5069;49.306;8.636;2023-02-11T12:55:27;102445.53;;;9.80;61.99
10060;BME280;5069;49.306;8.636;2023-02-11T12:58:33;102441.19;;;10.06;60.57
10060;BME280;5069;49.306;8.636;2023-02-11T13:01:46;102428.84;;;9.76;61.77
10060;BME280;5069;49.306;8.636;2023-02-11T13:04:53;102433.25;;;10.03;60.75
10060;BME280;5069;49.306;8.636;2023-02-11T13:08:14;102433.22;;;9.67;62.69
10060;BME280;5069;49.306;8.636;2023-02-11T13:11:22;102442.81;;;9.45;62.97
10060;BME280;5069;49.306;8.636;2023-02-11T13:14:33;102436.72;;;9.66;63.20
10060;BME280;5069;49.306;8.636;2023-02-11T13:17:43;102427.94;;;9.70;62.33
10060;BME280;5069;49.306;8.636;2023-02-11T13:20:57;102425.31;;;9.61;63.17
10060;BME280;5069;49.306;8.636;2023-02-11T13:30:30;102431.41;;;9.52;64.02
10060;BME280;5069;49.306;8.636;2023-02-11T13:36:36;102427.81;;;9.29;64.00
10060;BME280;5069;49.306;8.636;2023-02-11T13:39:37;102427.81;;;9.35;64.65
10060;BME280;5069;49.306;8.636;2023-02-11T13:42:49;102427.88;;;9.42;64.76
10060;BME280;5069;49.306;8.636;2023-02-11T13:45:57;102421.81;;;9.77;64.30
10060;BME280;5069;49.306;8.636;2023-02-11T13:48:59;102419.28;;;10.24;61.59
10060;BME280;5069;49.306;8.636;2023-02-11T13:52:04;102414.81;;;10.09;61.94
10060;BME280;5069;49.306;8.636;2023-02-11T14:05:19;102422.66;;;9.61;65.12
10060;BME280;5069;49.306;8.636;2023-02-11T14:09:06;102429.59;;;9.37;65.67
10060;BME280;5069;49.306;8.636;2023-02-11T14:12:24;102430.44;;;9.24;66.73
10060;BME280;5069;49.306;8.636;2023-02-11T14:15:26;102429.53;;;9.16;67.40
10060;BME280;5069;49.306;8.636;2023-02-11T14:18:56;102424.22;;;9.08;67.94
10060;BME280;5069;49.306;8.636;2023-02-11T14:22:13;102418.94;;;9.04;68.21
10060;BME280;5069;49.306;8.636;2023-02-11T14:25:22;102422.50;;;9.18;68.55
10060;BME280;5069;49.306;8.636;2023-02-11T14:28:25;102426.00;;;9.11;68.54
10060;BME280;5069;49.306;8.636;2023-02-11T14:31:39;102432.94;;;8.98;70.38
10060;BME280;5069;49.306;8.636;2023-02-11T14:35:04;102432.00;;;8.90;70.34
10060;BME280;5069;49.306;8.636;2023-02-11T14:41:23;102438.22;;;9.06;70.58
10060;BME280;5069;49.306;8.636;2023-02-11T14:44:27;102432.88;;;8.88;71.79
10060;BME280;5069;49.306;8.636;2023-02-11T14:47:42;102438.97;;;8.84;72.24
10060;BME280;5069;49.306;8.636;2023-02-11T14:50:49;102436.34;;;8.81;72.85
10060;BME280;5069;49.306;8.636;2023-02-11T14:53:56;102450.34;;;8.80;72.40
10060;BME280;5069;49.306;8.636;2023-02-11T14:57:07;102442.44;;;8.75;72.65
10060;BME280;5069;49.306;8.636;2023-02-11T15:00:18;102440.72;;;8.83;72.69
10060;BME280;5069;49.306;8.636;2023-02-11T15:06:41;102454.75;;;8.79;73.14
10060;BME280;5069;49.306;8.636;2023-02-11T15:09:50;102452.03;;;8.68;73.47
10060;BME280;5069;49.306;8.636;2023-02-11T15:12:52;102459.03;;;8.63;74.83
10060;BME280;5069;49.306;8.636;2023-02-11T15:15:58;102454.59;;;8.61;75.63
10060;BME280;5069;49.306;8.636;2023-02-11T15:19:03;102452.84;;;8.58;75.91
10060;BME280;5069;49.306;8.636;2023-02-11T15:22:16;102456.28;;;8.51;76.50
10060;BME280;5069;49.306;8.636;2023-02-11T15:25:18;102464.22;;;8.57;76.79
10060;BME280;5069;49.306;8.636;2023-02-11T15:28:23;102472.13;;;8.57;76.60
10060;BME280;5069;49.306;8.636;2023-02-11T15:31:26;102464.19;;;8.54;77.42
10060;BME280;5069;49.306;8.636;2023-02-11T15:34:28;102465.06;;;8.55;77.09
10060;BME280;5069;49.306;8.636;2023-02-11T15:37:30;102458.91;;;8.51;77.01
10060;BME280;5069;49.306;8.636;2023-02-11T15:40:34;102454.53;;;8.52;77.67
10060;BME280;5069;49.306;8.636;2023-02-11T15:43:47;102453.63;;;8.45;78.31
10060;BME280;5069;49.306;8.636;2023-02-11T15:46:48;102458.91;;;8.51;78.40
10060;BME280;5069;49.306;8.636;2023-02-11T15:49:50;102454.53;;;8.50;78.55
10060;BME280;5069;49.306;8.636;2023-02-11T15:52:52;102463.28;;;8.48;78.96
10060;BME280;5069;49.306;8.636;2023-02-11T15:56:21;102476.41;;;8.46;79.33
10060;BME280;5069;49.306;8.636;2023-02-11T15:59:32;102465.91;;;8.48;80.44
10060;BME280;5069;49.306;8.636;2023-02-11T16:02:38;102467.66;;;8.49;80.26
10060;BME280;5069;49.306;8.636;2023-02-11T16:05:45;102472.06;;;8.48;79.92
10060;BME280;5069;49.306;8.636;2023-02-11T16:09:37;102470.25;;;8.44;80.58
10060;BME280;5069;49.306;8.636;2023-02-11T16:12:39;102460.56;;;8.37;80.88
10060;BME280;5069;49.306;8.636;2023-02-11T16:15:44;102473.69;;;8.36;81.16
10060;BME280;5069;49.306;8.636;2023-02-11T16:18:50;102467.47;;;8.29;81.22
10060;BME280;5069;49.306;8.636;2023-02-11T16:22:09;102472.72;;;8.29;81.96
10060;BME280;5069;49.306;8.636;2023-02-11T16:25:19;102474.44;;;8.27;82.87
10060;BME280;5069;49.306;8.636;2023-02-11T16:28:21;102474.44;;;8.24;83.46
10060;BME280;5069;49.306;8.636;2023-02-11T16:31:31;102475.28;;;8.20;83.72
10060;BME280;5069;49.306;8.636;2023-02-11T16:34:33;102476.13;;;8.17;83.93
10060;BME280;5069;49.306;8.636;2023-02-11T16:37:36;102477.84;;;8.17;84.51
10060;BME280;5069;49.306;8.636;2023-02-11T16:40:37;102477.84;;;8.17;84.33
10060;BME280;5069;49.306;8.636;2023-02-11T16:43:39;102480.50;;;8.18;84.97
10060;BME280;5069;49.306;8.636;2023-02-11T16:46:40;102479.59;;;8.15;84.79
10060;BME280;5069;49.306;8.636;2023-02-11T16:49:42;102482.19;;;8.12;85.27
10060;BME280;5069;49.306;8.636;2023-02-11T16:52:44;102488.28;;;8.09;86.01
10060;BME280;5069;49.306;8.636;2023-02-11T16:55:46;102488.28;;;8.08;85.90
10060;BME280;5069;49.306;8.636;2023-02-11T16:58:47;102488.28;;;8.08;86.20
10060;BME280;5069;49.306;8.636;2023-02-11T17:01:51;102496.16;;;8.06;85.71
10060;BME280;5069;49.306;8.636;2023-02-11T17:04:54;102499.63;;;8.05;86.29
10060;BME280;5069;49.306;8.636;2023-02-11T17:07:57;102496.09;;;8.02;87.01
10060;BME280;5069;49.306;8.636;2023-02-11T17:11:01;102503.13;;;8.04;87.52
10060;BME280;5069;49.306;8.636;2023-02-11T17:14:04;102507.53;;;8.07;87.45
10060;BME280;5069;49.306;8.636;2023-02-11T17:17:05;102504.06;;;8.08;87.57
10060;BME280;5069;49.306;8.636;2023-02-11T17:20:09;102498.81;;;8.08;87.70
10060;BME280;5069;49.306;8.636;2023-02-11T17:23:11;102511.94;;;8.09;87.72
10060;BME280;5069;49.306;8.636;2023-02-11T17:26:12;102511.03;;;8.09;87.56
10060;BME280;5069;49.306;8.636;2023-02-11T17:29:17;102511.94;;;8.11;87.56
10060;BME280;5069;49.306;8.636;2023-02-11T17:32:19;102508.44;;;8.10;87.58
10060;BME280;5069;49.306;8.636;2023-02-11T17:35:21;102518.94;;;8.07;87.83
10060;BME280;5069;49.306;8.636;2023-02-11T17:38:22;102514.56;;;8.08;87.90
10060;BME280;5069;49.306;8.636;2023-02-11T17:41:24;102518.88;;;8.03;87.02
10060;BME280;5069;49.306;8.636;2023-02-11T17:44:25;102519.75;;;8.02;88.47
10060;BME280;5069;49.306;8.636;2023-02-11T17:47:27;102505.72;;;8.00;88.22
10060;BME280;5069;49.306;8.636;2023-02-11T17:50:28;102510.91;;;7.95;88.56
10060;BME280;5069;49.306;8.636;2023-02-11T17:53:30;102517.91;;;7.92;88.80
10060;BME280;5069;49.306;8.636;2023-02-11T17:56:33;102523.16;;;7.92;89.21
10060;BME280;5069;49.306;8.636;2023-02-11T17:59:34;102526.59;;;7.87;89.83
10060;BME280;5069;49.306;8.636;2023-02-11T18:02:36;102521.38;;;7.92;90.46
10060;BME280;5069;49.306;8.636;2023-02-11T18:05:37;102526.66;;;7.94;89.00